Time;durP1;ratioP1;P1;durP2;ratioP2;P2;SDS_P1;SDS_P2;PMS_P1;PMS_P2;Temp;Humidity;BMP_temperature;BMP_pressure;BME280_temperature;BME280_humidity;BME280_pressure;Samples;Min_cycle;Max_cycle;Signal;HPM_P1;HPM_P2
2021/01/31 00:04:33;;;;;;;55.27;36.00;;;;;;;-1.54;74.81;98187.36;1707635;81;21165;-94
2021/01/31 00:07:54;;;;;;;60.77;38.60;;;;;;;-1.54;74.92;98202.20;1732265;79;21202;-93
2021/01/31 00:11:12;;;;;;;61.53;39.43;;;;;;;-1.58;75.05;98208.27;1734045;81;21219;-95
2021/01/31 00:14:30;;;;;;;60.00;37.73;;;;;;;-1.56;75.16;98218.06;1735371;80;21262;-94
2021/01/31 00:17:51;;;;;;;60.00;37.50;;;;;;;-1.55;74.86;98156.97;1774100;79;21172;-94
2021/01/31 00:20:39;;;;;;;56.63;35.40;;;;;;;-1.59;74.87;98128.24;1726103;80;21214;-91
2021/01/31 00:23:32;;;;;;;51.13;33.63;;;;;;;-1.61;74.98;98155.83;1738042;77;21025;-89
2021/01/31 00:26:11;;;;;;;48.33;33.27;;;;;;;-1.59;74.88;98170.05;1691298;80;21129;-90
2021/01/31 00:29:03;;;;;;;50.60;33.37;;;;;;;-1.59;74.56;98173.96;1724115;80;21144;-94
2021/01/31 00:31:31;;;;;;;46.83;32.07;;;;;;;-1.60;74.54;98189.30;1724243;81;21159;-93
2021/01/31 00:34:25;;;;;;;44.17;30.47;;;;;;;-1.55;74.36;98191.44;1686053;80;21149;-95
2021/01/31 00:36:52;;;;;;;45.63;30.17;;;;;;;-1.59;73.87;98190.95;1683093;84;21199;-91
2021/01/31 00:39:21;;;;;;;48.27;33.37;;;;;;;-1.57;73.93;98202.05;1660155;83;21225;-91
2021/01/31 00:41:52;;;;;;;52.53;35.47;;;;;;;-1.57;73.72;98212.49;1679080;83;21373;-94
2021/01/31 00:45:00;;;;;;;44.57;30.17;;;;;;;-1.53;73.47;98212.48;1673490;82;21209;-95
2021/01/31 00:47:34;;;;;;;51.33;35.53;;;;;;;-1.52;73.44;98225.89;1728309;81;21194;-93
2021/01/31 00:50:18;;;;;;;46.67;31.50;;;;;;;-1.56;73.20;98228.52;1700361;82;21215;-94
2021/01/31 00:53:25;;;;;;;49.03;33.13;;;;;;;-1.58;73.23;98227.36;1721902;80;21154;-90
2021/01/31 00:55:54;;;;;;;57.93;37.30;;;;;;;-1.59;72.93;98237.97;1722710;81;21084;-89
2021/01/31 00:58:23;;;;;;;45.27;29.80;;;;;;;-1.67;72.96;98234.05;1733548;81;21353;-88
2021/01/31 01:00:50;;;;;;;51.87;36.37;;;;;;;-1.73;73.27;98231.59;1680505;83;22163;-89
2021/01/31 01:05:33;;;;;;;48.93;32.03;;;;;;;-1.73;73.25;98234.20;1832897;77;22927;-87
2021/01/31 01:08:00;;;;;;;56.27;35.83;;;;;;;-1.76;73.15;98239.74;1801656;78;21311;-90
2021/01/31 01:10:35;;;;;;;59.23;39.37;;;;;;;-1.78;72.75;98253.45;1828362;77;21258;-91
2021/01/31 01:13:03;;;;;;;48.83;33.27;;;;;;;-1.81;72.87;98254.60;1764670;78;21011;-88
2021/01/31 01:15:30;;;;;;;50.70;34.67;;;;;;;-1.87;72.41;98253.91;1742581;78;21115;-86
2021/01/31 01:17:58;;;;;;;50.60;32.97;;;;;;;-1.87;72.46;98260.94;1744244;78;21269;-83
2021/01/31 01:20:26;;;;;;;43.27;31.00;;;;;;;-1.90;72.73;98271.69;1712438;78;21222;-88
2021/01/31 01:22:55;;;;;;;49.07;32.37;;;;;;;-1.85;72.53;98275.46;1687379;81;21082;-90
2021/01/31 01:25:24;;;;;;;34.57;24.10;;;;;;;-1.85;72.42;98276.77;1702792;82;21180;-89
2021/01/31 01:27:51;;;;;;;32.77;23.53;;;;;;;-1.82;72.36;98282.18;1706416;83;21354;-88
2021/01/31 01:30:24;;;;;;;36.87;25.80;;;;;;;-1.82;72.06;98281.69;1703747;83;21193;-89
2021/01/31 01:32:54;;;;;;;33.40;22.93;;;;;;;-1.89;71.89;98279.37;1701303;83;21348;-88
2021/01/31 01:35:21;;;;;;;36.57;26.13;;;;;;;-1.92;72.12;98279.71;1692577;83;21971;-91
2021/01/31 01:37:50;;;;;;;28.83;19.10;;;;;;;-1.95;72.11;98273.49;1675792;84;21335;-90
2021/01/31 01:40:25;;;;;;;25.83;18.87;;;;;;;-2.14;71.40;98248.97;1717641;83;21201;-90
2021/01/31 01:42:57;;;;;;;23.77;18.07;;;;;;;-1.97;71.58;98297.14;1689364;83;21168;-89
2021/01/31 01:45:35;;;;;;;26.40;18.97;;;;;;;-2.04;71.75;98305.77;1696172;82;21233;-90
2021/01/31 01:48:19;;;;;;;25.32;18.62;;;;;;;-2.03;71.86;98321.78;1722704;82;21178;-89
2021/01/31 01:50:52;;;;;;;24.53;16.23;;;;;;;-2.04;71.79;98320.12;1696468;84;21207;-91
2021/01/31 01:53:24;;;;;;;26.13;16.93;;;;;;;-2.04;71.91;98319.63;1693664;83;21213;-90
2021/01/31 01:56:10;;;;;;;23.87;17.90;;;;;;;-2.04;71.74;98327.46;1683200;82;21281;-89
2021/01/31 01:58:37;;;;;;;23.73;15.70;;;;;;;-2.09;71.91;98337.58;1740941;81;21195;-89
2021/01/31 02:01:04;;;;;;;22.30;16.20;;;;;;;-2.05;71.91;98342.00;1725569;81;21127;-90
2021/01/31 02:03:34;;;;;;;18.33;12.53;;;;;;;-2.03;71.93;98340.86;1708795;84;21919;-92
2021/01/31 02:06:06;;;;;;;16.17;12.57;;;;;;;-2.02;71.79;98336.45;1693881;84;21216;-90
2021/01/31 02:08:33;;;;;;;15.37;12.30;;;;;;;-2.01;71.44;98355.88;1682588;84;21219;-88
2021/01/31 02:11:03;;;;;;;15.73;12.13;;;;;;;-2.21;71.51;98320.55;1693508;84;21196;-88
2021/01/31 02:13:30;;;;;;;14.23;11.60;;;;;;;-1.99;71.24;98354.42;1686295;84;21208;-88
2021/01/31 02:15:57;;;;;;;18.63;12.17;;;;;;;-2.01;71.26;98358.48;1691998;84;21420;-88
2021/01/31 02:18:35;;;;;;;11.90;9.00;;;;;;;-1.97;71.27;98372.05;1684308;84;21777;-88
2021/01/31 02:21:28;;;;;;;16.33;11.10;;;;;;;-1.96;71.23;98367.14;1676551;84;21232;-89
2021/01/31 02:24:27;;;;;;;14.80;11.30;;;;;;;-1.98;71.14;98374.31;1690520;83;21133;-90
2021/01/31 02:27:27;;;;;;;13.20;10.63;;;;;;;-2.06;71.18;98376.91;1679208;84;21843;-90
2021/01/31 02:30:21;;;;;;;15.80;11.13;;;;;;;-2.14;71.47;98385.52;1697236;83;21342;-89
2021/01/31 02:33:16;;;;;;;15.33;11.53;;;;;;;-2.21;71.89;98387.91;1696360;84;21195;-90
2021/01/31 02:35:45;;;;;;;13.30;10.40;;;;;;;-2.24;71.85;98397.83;1700307;83;21182;-90
2021/01/31 02:38:19;;;;;;;12.90;9.23;;;;;;;-2.28;71.90;98405.65;1700545;83;21461;-88
2021/01/31 02:40:54;;;;;;;11.10;9.20;;;;;;;-2.32;72.06;98410.34;1678540;85;21227;-89
2021/01/31 02:43:41;;;;;;;14.03;10.63;;;;;;;-2.32;72.22;98420.79;1702073;83;21161;-91
2021/01/31 02:46:26;;;;;;;9.70;8.40;;;;;;;-2.61;72.16;98377.55;1640015;84;21078;-91
2021/01/31 02:49:15;;;;;;;12.47;9.83;;;;;;;-2.34;72.18;98435.78;1647417;83;22559;-91
2021/01/31 02:52:12;;;;;;;11.07;8.87;;;;;;;-2.33;72.09;98450.48;1677871;81;21135;-91
2021/01/31 02:54:55;;;;;;;10.50;7.07;;;;;;;-2.36;72.25;98458.11;1660583;83;21295;-91
2021/01/31 02:57:37;;;;;;;8.50;6.97;;;;;;;-2.41;72.38;98458.23;1640530;83;21068;-90
2021/01/31 03:00:44;;;;;;;10.50;8.87;;;;;;;-2.42;72.47;98458.72;1795403;79;23340;-90
2021/01/31 03:03:24;;;;;;;8.43;6.63;;;;;;;-2.45;72.58;98466.88;1719495;82;21366;-89
2021/01/31 03:06:09;;;;;;;9.53;7.87;;;;;;;-2.46;72.55;98471.74;1681472;84;21192;-90
2021/01/31 03:08:40;;;;;;;9.97;7.47;;;;;;;-2.44;72.55;98468.98;1680726;84;21227;-89
2021/01/31 03:12:01;;;;;;;9.43;6.70;;;;;;;-2.45;72.55;98482.98;1677679;84;21567;-91
2021/01/31 03:14:46;;;;;;;6.93;6.30;;;;;;;-2.47;72.50;98497.98;1691584;84;21413;-89
2021/01/31 03:17:29;;;;;;;7.50;6.20;;;;;;;-2.48;72.59;98506.80;1671982;83;21331;-91
2021/01/31 03:20:08;;;;;;;9.40;7.03;;;;;;;-2.51;72.73;98520.13;1650498;85;21227;-90
2021/01/31 03:22:42;;;;;;;8.60;7.00;;;;;;;-2.52;72.85;98528.44;1692903;84;21036;-90
2021/01/31 03:25:14;;;;;;;9.87;7.57;;;;;;;-2.49;72.92;98542.48;1686502;83;21196;-89
2021/01/31 03:27:42;;;;;;;5.97;4.93;;;;;;;-2.73;72.87;98506.57;1669048;83;21353;-90
2021/01/31 03:30:13;;;;;;;8.23;7.13;;;;;;;-2.39;72.76;98562.00;1699090;83;21362;-89
2021/01/31 03:32:49;;;;;;;8.53;6.87;;;;;;;-2.32;72.61;98568.73;1701279;83;21171;-91
2021/01/31 03:35:26;;;;;;;9.47;6.63;;;;;;;-2.30;72.63;98579.34;1662870;84;21106;-92
2021/01/31 03:38:02;;;;;;;;;;;;;;;-2.20;72.52;98589.23;1658462;84;21175;-93
2021/01/31 03:40:31;;;;;;;9.23;7.17;;;;;;;-2.14;72.27;98593.04;1654833;85;20545;-93
2021/01/31 03:43:00;;;;;;;8.87;6.63;;;;;;;-2.13;72.23;98597.77;1684257;83;21218;-94
2021/01/31 03:45:35;;;;;;;9.93;6.77;;;;;;;-2.09;71.93;98603.02;1659749;82;21848;-91
2021/01/31 03:48:17;;;;;;;8.73;6.23;;;;;;;-2.08;71.79;98604.67;1636296;83;21252;-93
2021/01/31 03:50:55;;;;;;;10.57;8.27;;;;;;;-2.04;71.57;98608.62;1651232;84;21193;-92
2021/01/31 03:53:31;;;;;;;9.47;7.13;;;;;;;-2.03;71.58;98616.30;1665709;84;21326;-95
2021/01/31 03:56:00;;;;;;;11.93;8.83;;;;;;;-2.07;71.51;98620.19;1655485;85;21150;-89
2021/01/31 03:58:27;;;;;;;8.37;6.30;;;;;;;-2.06;71.57;98617.09;1677132;84;21194;-86
2021/01/31 04:00:58;;;;;;;11.00;7.80;;;;;;;-2.05;71.48;98616.13;1690788;84;21115;-88
2021/01/31 04:03:34;;;;;;;12.87;8.93;;;;;;;-2.05;71.42;98627.39;1651648;85;21347;-88
2021/01/31 04:06:11;;;;;;;9.57;7.77;;;;;;;-2.06;71.49;98632.75;1667727;85;21205;-87
2021/01/31 04:08:42;;;;;;;13.18;7.83;;;;;;;-2.09;71.50;98646.09;1661080;85;21719;-89
2021/01/31 04:11:09;;;;;;;13.97;8.83;;;;;;;-2.11;71.44;98651.48;1657189;83;21244;-86
2021/01/31 04:13:36;;;;;;;12.10;8.47;;;;;;;-2.10;71.46;98664.05;1657430;85;21224;-89
2021/01/31 04:16:07;;;;;;;8.20;6.43;;;;;;;-2.08;71.42;98665.53;1653856;86;21213;-88
2021/01/31 04:18:38;;;;;;;10.97;7.83;;;;;;;-2.09;71.22;98666.98;1673882;85;21691;-88
2021/01/31 04:21:05;;;;;;;8.23;6.37;;;;;;;-2.10;71.43;98677.10;1659530;85;21232;-88
2021/01/31 04:23:31;;;;;;;;;;;;;;;-2.09;71.32;98689.17;1678293;83;21271;-87
2021/01/31 04:25:58;;;;;;;9.80;7.23;;;;;;;-2.11;71.38;98691.11;1668419;85;20180;-89
2021/01/31 04:28:27;;;;;;;7.83;7.03;;;;;;;-2.17;71.61;98699.89;1658275;84;21215;-87
2021/01/31 04:30:57;;;;;;;8.93;7.40;;;;;;;-2.13;71.34;98702.19;1682229;84;21164;-88
2021/01/31 04:33:29;;;;;;;8.83;7.70;;;;;;;-2.13;71.39;98700.88;1673695;84;21586;-87
2021/01/31 04:35:56;;;;;;;9.70;8.10;;;;;;;-2.12;71.47;98707.76;1697551;84;21229;-89
2021/01/31 04:38:23;;;;;;;9.03;7.40;;;;;;;-2.08;71.30;98710.41;1655557;84;21723;-89
2021/01/31 04:40:52;;;;;;;6.13;5.53;;;;;;;-2.08;71.30;98709.91;1670101;84;21365;-89
2021/01/31 04:43:22;;;;;;;9.87;8.63;;;;;;;-2.05;71.21;98721.88;1661286;84;21385;-89
2021/01/31 04:45:48;;;;;;;9.50;8.53;;;;;;;-2.05;71.19;98727.91;1674260;84;21259;-88
2021/01/31 04:49:03;;;;;;;11.63;8.47;;;;;;;-2.03;71.29;98737.72;1695469;84;21163;-88
2021/01/31 04:51:56;;;;;;;10.07;7.33;;;;;;;-1.96;71.32;98742.70;1672641;85;21167;-91
2021/01/31 04:55:07;;;;;;;10.23;8.57;;;;;;;-1.88;71.16;98760.23;1692134;84;21186;-87
2021/01/31 04:58:13;;;;;;;13.83;8.83;;;;;;;-1.88;71.12;98769.38;1689659;84;21162;-88
2021/01/31 05:00:53;;;;;;;12.50;8.57;;;;;;;-1.84;70.91;98775.95;1672431;84;21087;-89
2021/01/31 05:03:23;;;;;;;13.47;9.10;;;;;;;-1.81;70.84;98774.82;1685123;85;21212;-87
2021/01/31 05:06:00;;;;;;;12.27;7.70;;;;;;;-1.80;70.94;98789.53;1684240;84;21215;-90
2021/01/31 05:08:28;;;;;;;12.60;9.57;;;;;;;-1.76;70.63;98775.20;1689050;84;21185;-89
2021/01/31 05:11:02;;;;;;;11.80;7.87;;;;;;;-1.74;70.56;98794.66;1695031;84;21236;-89
2021/01/31 05:13:52;;;;;;;11.77;9.37;;;;;;;-1.78;70.52;98789.72;1690941;84;21148;-88
2021/01/31 05:16:19;;;;;;;13.37;9.07;;;;;;;-1.77;70.59;98795.29;1683174;84;21166;-90
2021/01/31 05:18:53;;;;;;;10.73;8.40;;;;;;;-1.82;70.49;98801.43;1669226;84;21198;-88
2021/01/31 05:21:24;;;;;;;10.90;8.33;;;;;;;-1.82;70.61;98802.73;1643100;86;21230;-89
2021/01/31 05:24:09;;;;;;;10.00;8.57;;;;;;;-1.85;70.81;98799.59;1688793;83;21226;-88
2021/01/31 05:26:39;;;;;;;16.10;11.77;;;;;;;-1.80;70.78;98812.55;1651777;86;21215;-87
2021/01/31 05:29:17;;;;;;;14.50;10.87;;;;;;;-1.78;70.67;98826.28;1674024;84;21196;-86
2021/01/31 05:32:10;;;;;;;13.97;10.40;;;;;;;-1.74;70.29;98833.34;1694187;82;21321;-88
2021/01/31 05:34:53;;;;;;;16.30;12.77;;;;;;;-1.72;70.51;98843.16;1673055;81;21155;-89
2021/01/31 05:37:30;;;;;;;16.97;11.87;;;;;;;-1.70;70.45;98840.41;1626364;86;21203;-87
2021/01/31 05:40:14;;;;;;;;;;;;;;;;;;;;;
2021/01/31 05:42:47;;;;;;;15.10;10.97;;;;;;;-1.61;70.13;98858.64;1820984;77;22925;-89
2021/01/31 05:45:24;;;;;;;14.80;11.57;;;;;;;-1.65;70.17;98870.36;1783011;77;21090;-87
2021/01/31 05:47:56;;;;;;;16.30;11.07;;;;;;;-1.61;70.23;98867.78;1777277;80;21594;-88
2021/01/31 05:50:36;;;;;;;15.57;11.53;;;;;;;-1.60;69.95;98877.74;1738665;80;21496;-90
2021/01/31 05:53:36;;;;;;;14.50;10.50;;;;;;;-1.60;69.57;98876.44;1748541;80;21201;-90
2021/01/31 05:56:26;;;;;;;17.13;12.53;;;;;;;-1.70;69.48;98877.80;1735405;80;21518;-88
2021/01/31 05:59:04;;;;;;;16.63;12.97;;;;;;;-1.73;69.73;98888.56;1710300;81;21297;-88
2021/01/31 06:01:33;;;;;;;15.40;11.60;;;;;;;-1.70;69.80;98888.25;1669296;84;21281;-90
2021/01/31 06:04:14;;;;;;;16.30;11.60;;;;;;;-1.68;69.94;98892.03;1682824;82;21195;-89
2021/01/31 06:06:45;;;;;;;14.40;10.23;;;;;;;-1.65;69.74;98886.03;1675617;83;21170;-91
2021/01/31 06:09:31;;;;;;;18.37;12.00;;;;;;;-1.62;69.80;98896.66;1690269;81;21218;-89
2021/01/31 06:12:10;;;;;;;16.85;11.25;;;;;;;-1.56;69.50;98890.88;1705395;81;21070;-89
2021/01/31 06:14:41;;;;;;;15.40;11.25;;;;;;;-1.59;69.41;98905.53;1712262;81;21150;-90
2021/01/31 06:17:19;;;;;;;15.60;11.77;;;;;;;-1.56;69.45;98914.40;1700280;82;21132;-89
2021/01/31 06:19:49;;;;;;;14.20;10.37;;;;;;;-1.52;69.36;98921.47;1695159;81;21142;-86
2021/01/31 06:22:18;;;;;;;16.60;11.70;;;;;;;-1.52;69.43;98927.50;1698127;81;21221;-89
2021/01/31 06:24:49;;;;;;;17.40;11.47;;;;;;;-1.48;69.39;98934.08;1680339;82;21769;-89
2021/01/31 06:27:32;;;;;;;13.43;10.17;;;;;;;-1.52;69.56;98929.30;1680440;82;21184;-88
2021/01/31 06:30:20;;;;;;;17.90;11.90;;;;;;;-1.52;69.55;98941.06;1675760;84;21313;-88
2021/01/31 06:32:51;;;;;;;14.97;12.47;;;;;;;-1.56;69.78;98943.14;1677831;85;21306;-89
2021/01/31 06:35:23;;;;;;;15.97;12.50;;;;;;;-1.54;69.85;98952.12;1723449;82;21095;-91
2021/01/31 06:38:12;;;;;;;;;;;;;;;-1.46;70.42;98956.16;1721301;82;21139;-88
2021/01/31 06:41:12;;;;;;;19.27;13.10;;;;;;;-1.35;69.75;98959.88;1722185;82;20163;-92
2021/01/31 06:44:16;;;;;;;19.63;13.43;;;;;;;-1.29;69.80;98963.70;1708050;83;21151;-91
2021/01/31 06:47:14;;;;;;;16.63;13.03;;;;;;;-1.25;69.56;98955.91;1716559;83;21209;-90
2021/01/31 06:50:17;;;;;;;18.10;14.13;;;;;;;-1.21;69.15;98959.38;1712294;82;21574;-92
2021/01/31 06:53:40;;;;;;;17.83;13.30;;;;;;;-1.17;69.17;98962.52;1717574;83;21195;-93
2021/01/31 06:56:39;;;;;;;18.27;12.00;;;;;;;-1.24;69.40;98971.94;1721103;82;21081;-90
2021/01/31 07:03:06;;;;;;;20.60;11.97;;;;;;;-1.22;69.46;98970.81;1698369;81;21328;-91
2021/01/31 07:06:23;;;;;;;15.57;10.97;;;;;;;-1.18;69.45;98973.47;1708357;82;21134;-91
2021/01/31 07:13:11;;;;;;;14.13;9.57;;;;;;;-1.07;69.21;98971.14;1879445;74;23296;-91
2021/01/31 07:16:15;;;;;;;20.23;13.47;;;;;;;-1.07;69.28;98971.14;1806196;77;21194;-93
2021/01/31 07:19:22;;;;;;;21.83;13.97;;;;;;;-1.00;69.13;98997.52;1839020;77;21289;-92
2021/01/31 07:22:06;;;;;;;23.07;16.07;;;;;;;-0.97;68.83;98992.00;1824776;77;21170;-90
2021/01/31 07:24:49;;;;;;;19.70;13.87;;;;;;;-0.93;68.72;98999.08;1831509;77;21167;-88
2021/01/31 07:27:34;;;;;;;20.07;13.87;;;;;;;-0.86;68.61;99010.60;1829786;77;21698;-91
2021/01/31 07:30:21;;;;;;;17.57;12.45;;;;;;;-0.81;67.93;99017.50;1839041;77;21119;-89
2021/01/31 07:33:10;;;;;;;19.00;13.40;;;;;;;-0.82;67.66;99025.02;1840212;77;21495;-88
2021/01/31 07:35:58;;;;;;;17.47;12.27;;;;;;;-0.83;67.54;99025.98;1840710;77;21119;-88
2021/01/31 07:38:35;;;;;;;17.87;13.47;;;;;;;-0.84;67.49;99036.94;1827642;77;21147;-89
2021/01/31 07:41:05;;;;;;;16.80;12.20;;;;;;;-0.78;67.51;99047.30;1836849;77;21170;-89
2021/01/31 07:43:37;;;;;;;17.87;12.37;;;;;;;-0.74;67.29;99039.98;1755456;78;21330;-90
2021/01/31 07:46:14;;;;;;;17.80;13.27;;;;;;;-0.68;66.92;99043.31;1802286;77;21193;-90
2021/01/31 07:48:51;;;;;;;16.23;11.83;;;;;;;-0.66;66.78;99059.22;1769057;78;21140;-89
2021/01/31 07:51:37;;;;;;;19.77;13.90;;;;;;;-0.61;66.26;99061.38;1805330;78;21147;-91
2021/01/31 07:54:29;;;;;;;19.47;12.47;;;;;;;-0.60;66.26;99072.20;1794576;78;21158;-88
2021/01/31 07:57:02;;;;;;;;;;;;;;;-0.62;66.30;99074.15;1801055;76;21065;-91
2021/01/31 07:59:41;;;;;;;17.30;11.57;;;;;;;-0.60;66.18;99078.25;1796874;78;20202;-92
2021/01/31 08:02:41;;;;;;;15.33;10.13;;;;;;;-0.60;65.99;99086.59;1796890;78;21088;-88
2021/01/31 08:05:50;;;;;;;16.60;12.68;;;;;;;-0.63;65.87;99085.08;1792720;79;21196;-87
2021/01/31 08:08:52;;;;;;;19.77;13.07;;;;;;;-0.64;65.76;99097.84;1781453;79;21167;-90
2021/01/31 08:11:41;;;;;;;15.70;10.70;;;;;;;-0.61;65.61;99110.62;1786119;78;21136;-89
2021/01/31 08:14:09;;;;;;;18.87;12.70;;;;;;;-0.60;65.08;99124.05;1783727;78;21179;-90
2021/01/31 08:16:48;;;;;;;20.27;11.50;;;;;;;-0.56;64.73;99128.52;1789460;78;21187;-90
2021/01/31 08:19:22;;;;;;;17.97;11.10;;;;;;;-0.56;65.02;99133.75;1735797;81;21170;-89
2021/01/31 08:22:11;;;;;;;15.47;11.13;;;;;;;-0.53;64.97;99132.13;1734068;81;21203;-90
2021/01/31 08:25:08;;;;;;;16.27;11.73;;;;;;;-0.52;64.64;99138.21;1753015;81;21233;-89
2021/01/31 08:27:48;;;;;;;14.07;10.23;;;;;;;-0.53;64.76;99138.67;1756427;80;21299;-90
2021/01/31 08:30:32;;;;;;;18.87;12.03;;;;;;;-0.51;64.52;99138.53;1752593;80;21285;-91
2021/01/31 08:33:14;;;;;;;18.27;11.27;;;;;;;-0.46;64.72;99143.67;1746680;80;21187;-90
2021/01/31 08:35:51;;;;;;;14.53;10.37;;;;;;;-0.35;64.21;99146.58;1705427;83;21170;-89
2021/01/31 08:38:32;;;;;;;15.95;10.00;;;;;;;-0.29;63.67;99155.14;1747525;80;22014;-89
2021/01/31 08:41:11;;;;;;;17.20;12.03;;;;;;;-0.20;63.47;99148.20;1739175;81;21183;-93
2021/01/31 08:43:48;;;;;;;15.47;11.40;;;;;;;-0.18;63.27;99144.95;1754999;80;21264;-88
2021/01/31 08:46:35;;;;;;;16.93;11.47;;;;;;;-0.11;62.85;99156.98;1775012;79;21214;-90
2021/01/31 08:49:12;;;;;;;14.67;11.00;;;;;;;-0.09;63.07;99153.72;1773723;79;21436;-89
2021/01/31 08:51:43;;;;;;;17.33;11.67;;;;;;;-0.06;62.52;99169.13;1760441;80;21160;-92
2021/01/31 08:54:19;;;;;;;16.93;12.27;;;;;;;-0.05;62.85;99168.16;1772022;79;21199;-90
2021/01/31 08:56:58;;;;;;;16.47;10.83;;;;;;;-0.02;62.18;99180.95;1784226;79;21064;-92
2021/01/31 08:59:47;;;;;;;15.83;11.03;;;;;;;-0.01;61.77;99180.80;1769200;79;21169;-89
2021/01/31 09:02:56;;;;;;;17.70;10.97;;;;;;;0.09;61.42;99185.97;1802700;78;21169;-92
2021/01/31 09:05:50;;;;;;;12.65;9.63;;;;;;;0.24;60.72;99190.20;1779985;78;21338;-90
2021/01/31 09:08:18;;;;;;;24.40;11.40;;;;;;;0.34;60.90;99187.50;1747811;78;21795;-90
2021/01/31 09:10:48;;;;;;;15.23;10.67;;;;;;;0.54;60.32;99185.55;1770699;78;21172;-91
2021/01/31 09:13:34;;;;;;;13.57;10.00;;;;;;;0.61;60.24;99187.90;1725914;80;21234;-91
2021/01/31 09:16:18;;;;;;;14.27;9.13;;;;;;;0.74;59.73;99190.95;1760870;80;21203;-90
2021/01/31 09:19:23;;;;;;;11.47;8.37;;;;;;;0.78;59.46;99179.66;1735514;81;21658;-91
2021/01/31 09:22:10;;;;;;;13.53;10.53;;;;;;;0.88;59.30;99197.42;1735576;81;21210;-90
2021/01/31 09:24:53;;;;;;;13.57;10.20;;;;;;;0.93;59.30;99193.86;1725407;81;21207;-94
2021/01/31 09:28:24;;;;;;;12.50;8.97;;;;;;;1.01;58.85;99196.20;1746607;79;21354;-91
2021/01/31 09:31:04;;;;;;;14.00;9.25;;;;;;;1.07;58.62;99204.77;1750581;79;21210;-90
2021/01/31 09:34:20;;;;;;;13.75;9.23;;;;;;;1.05;58.54;99206.22;1766215;78;21097;-92
2021/01/31 09:37:27;;;;;;;13.75;9.05;;;;;;;1.10;58.54;99220.21;1768210;77;21241;-93
2021/01/31 09:39:58;;;;;;;10.70;7.43;;;;;;;1.12;58.30;99223.50;1715338;79;21221;-89
2021/01/31 09:42:30;;;;;;;10.53;7.13;;;;;;;1.13;57.10;99229.06;1743596;81;21389;-89
2021/01/31 09:45:31;;;;;;;13.37;8.53;;;;;;;1.09;57.33;99230.36;1759314;80;21247;-90
2021/01/31 09:48:01;;;;;;;12.03;8.27;;;;;;;0.99;56.70;99234.90;1753138;81;21756;-89
2021/01/31 09:50:39;;;;;;;14.20;8.13;;;;;;;0.90;57.35;99249.25;1720556;82;21118;-90
2021/01/31 09:53:36;;;;;;;11.90;7.67;;;;;;;0.90;57.37;99247.94;1735593;81;21823;-91
2021/01/31 09:56:14;;;;;;;10.67;7.17;;;;;;;0.94;57.53;99250.62;1724261;80;21110;-89
2021/01/31 09:58:49;;;;;;;9.90;7.63;;;;;;;0.93;57.45;99251.58;1768599;79;21179;-90
2021/01/31 10:05:02;;;;;;;10.67;6.67;;;;;;;0.93;56.77;99241.09;1721619;82;21171;-89
2021/01/31 10:07:49;;;;;;;8.67;6.13;;;;;;;0.88;55.78;99252.52;1734473;81;21171;-90
2021/01/31 10:10:52;;;;;;;8.70;5.43;;;;;;;0.77;56.18;99267.19;1734733;81;21301;-92
2021/01/31 10:14:07;;;;;;;9.80;7.17;;;;;;;0.74;55.65;99264.88;1712543;81;21418;-89
2021/01/31 10:16:41;;;;;;;8.67;6.43;;;;;;;0.74;55.53;99267.02;1726004;81;21140;-90
2021/01/31 10:19:22;;;;;;;9.70;6.20;;;;;;;0.71;56.12;99267.30;1731446;81;21194;-90
2021/01/31 10:21:55;;;;;;;17.30;9.83;;;;;;;0.76;56.03;99274.73;1732339;81;21426;-90
2021/01/31 10:25:05;;;;;;;10.73;6.77;;;;;;;0.78;55.43;99264.91;1734866;81;21140;-90
2021/01/31 10:27:46;;;;;;;13.90;7.27;;;;;;;0.86;55.62;99264.97;1716543;81;21123;-89
2021/01/31 10:30:49;;;;;;;9.83;6.67;;;;;;;0.91;54.77;99264.53;1733270;81;21191;-90
2021/01/31 10:33:43;;;;;;;10.13;6.33;;;;;;;0.97;55.66;99276.53;1743079;80;21113;-92
2021/01/31 10:36:37;;;;;;;5.47;4.23;;;;;;;1.09;55.75;99275.82;1689313;83;21175;-89
2021/01/31 10:39:26;;;;;;;;;;;;;;;1.21;55.04;99279.02;1679937;83;21205;-90
2021/01/31 10:42:32;;;;;;;10.70;5.83;;;;;;;0.65;53.70;99193.66;1672799;83;20226;-90
2021/01/31 10:45:21;;;;;;;8.13;5.20;;;;;;;1.21;53.69;99295.26;1713910;82;21073;-88
2021/01/31 10:48:39;;;;;;;9.30;5.53;;;;;;;1.24;53.81;99306.25;1712383;81;21284;-91
2021/01/31 10:51:59;;;;;;;11.53;7.30;;;;;;;1.28;54.42;99303.67;1727407;80;21307;-90
2021/01/31 10:55:28;;;;;;;11.10;6.47;;;;;;;1.29;53.87;99301.37;1713604;81;21237;-91
2021/01/31 10:58:18;;;;;;;8.83;4.57;;;;;;;1.30;54.08;99310.91;1731498;81;21167;-89
2021/01/31 11:01:39;;;;;;;6.90;4.57;;;;;;;1.27;53.23;99311.70;1710754;81;21073;-90
2021/01/31 11:07:45;;;;;;;6.80;4.77;;;;;;;1.28;53.45;99313.33;1692516;84;21233;-89
2021/01/31 11:11:02;;;;;;;6.90;5.33;;;;;;;1.33;52.60;99314.52;1703008;83;21215;-90
2021/01/31 11:14:00;;;;;;;8.33;5.90;;;;;;;1.31;52.15;99328.29;1724041;81;21155;-91
2021/01/31 11:16:51;;;;;;;7.77;5.07;;;;;;;1.21;52.94;99328.07;1659488;83;21639;-90
2021/01/31 11:19:20;;;;;;;9.50;5.73;;;;;;;1.13;53.37;99333.59;1701764;83;21132;-89
2021/01/31 11:21:49;;;;;;;7.37;5.20;;;;;;;1.10;53.54;99337.00;1684717;84;21152;-89
2021/01/31 11:24:18;;;;;;;7.50;4.27;;;;;;;1.12;52.97;99342.42;1721617;82;21112;-89
2021/01/31 11:26:47;;;;;;;7.60;4.60;;;;;;;1.10;53.48;99343.06;1712995;82;21205;-91
2021/01/31 11:29:20;;;;;;;7.37;5.50;;;;;;;1.11;53.56;99349.13;1716499;80;21147;-90
2021/01/31 11:31:50;;;;;;;7.40;6.33;;;;;;;1.09;53.54;99345.37;1720442;80;21233;-89
2021/01/31 11:34:22;;;;;;;8.43;3.97;;;;;;;1.14;53.58;99347.53;1755445;80;21059;-90
2021/01/31 11:37:31;;;;;;;4.67;3.33;;;;;;;1.13;53.26;99351.11;1746666;79;21244;-90
2021/01/31 11:40:06;;;;;;;6.57;3.83;;;;;;;1.10;53.11;99350.12;1758702;80;21132;-89
2021/01/31 11:42:33;;;;;;;4.73;4.00;;;;;;;1.05;53.55;99354.50;1748227;80;21123;-89
2021/01/31 11:45:05;;;;;;;4.47;3.80;;;;;;;1.08;53.47;99347.64;1732201;80;21110;-90
2021/01/31 11:47:34;;;;;;;7.20;3.50;;;;;;;1.14;53.09;99354.09;1699709;83;21188;-91
2021/01/31 11:50:31;;;;;;;5.80;4.77;;;;;;;1.24;52.98;99356.62;1660755;85;21521;-90
2021/01/31 11:53:40;;;;;;;4.60;3.23;;;;;;;1.24;53.14;99363.19;1650848;86;21201;-89
2021/01/31 11:56:38;;;;;;;;;;;;;;;;;;;;;
2021/01/31 11:59:26;;;;;;;8.17;3.00;;;;;;;1.17;51.99;99353.80;1758566;80;23063;-92
2021/01/31 12:02:18;;;;;;;7.70;4.73;;;;;;;1.09;51.98;99365.52;1677228;81;21252;-90
2021/01/31 12:05:26;;;;;;;5.33;3.70;;;;;;;1.01;51.37;99355.78;1656994;84;21313;-91
2021/01/31 12:08:15;;;;;;;5.43;4.37;;;;;;;0.86;51.56;99366.47;1608991;86;21211;-89
2021/01/31 12:10:49;;;;;;;6.30;3.63;;;;;;;0.78;51.43;99368.53;1627067;86;21273;-91
2021/01/31 12:13:28;;;;;;;4.60;3.27;;;;;;;0.67;51.47;99372.68;1593254;87;21920;-91
2021/01/31 12:16:05;;;;;;;6.53;4.07;;;;;;;0.61;52.08;99368.85;1597928;87;21222;-90
2021/01/31 12:18:58;;;;;;;3.93;3.20;;;;;;;0.56;52.04;99379.77;1628042;85;21139;-90
2021/01/31 12:21:36;;;;;;;4.50;3.23;;;;;;;0.54;52.26;99373.84;1634434;85;21191;-90
2021/01/31 12:27:37;;;;;;;5.87;4.50;;;;;;;0.46;52.53;99389.50;1531205;92;21256;-93
2021/01/31 12:30:45;;;;;;;7.67;4.37;;;;;;;0.10;52.47;99360.58;1528603;91;21232;-92
2021/01/31 12:33:52;;;;;;;7.43;4.10;;;;;;;0.33;53.17;99402.12;1520937;91;21349;-92
2021/01/31 12:36:49;;;;;;;5.83;4.00;;;;;;;0.32;53.40;99409.17;1515113;92;21240;-93
2021/01/31 12:40:00;;;;;;;8.60;5.70;;;;;;;0.31;53.11;99405.38;1503975;93;21263;-93
2021/01/31 12:43:16;;;;;;;7.20;5.73;;;;;;;0.34;53.26;99401.98;1522867;91;21211;-89
2021/01/31 12:45:42;;;;;;;8.27;4.97;;;;;;;0.32;53.22;99415.73;1530244;90;21173;-92
2021/01/31 12:48:24;;;;;;;9.27;5.83;;;;;;;0.33;53.49;99415.23;1524060;91;21259;-89
2021/01/31 12:50:54;;;;;;;9.40;6.03;;;;;;;0.35;53.43;99422.47;1524701;91;21204;-89
2021/01/31 12:53:22;;;;;;;8.20;5.27;;;;;;;0.36;52.78;99428.06;1496826;92;21485;-88
2021/01/31 12:56:03;;;;;;;8.35;5.47;;;;;;;0.38;53.05;99427.43;1523407;91;21190;-90
2021/01/31 12:58:43;;;;;;;7.50;5.27;;;;;;;0.38;52.97;99439.23;1505380;91;21396;-91
2021/01/31 13:01:47;;;;;;;8.13;5.70;;;;;;;0.39;53.02;99434.30;1542350;90;21429;-92
2021/01/31 13:04:24;;;;;;;6.37;5.00;;;;;;;0.41;53.49;99434.98;1535572;92;21254;-90
2021/01/31 13:07:22;;;;;;;;;;;;;;;0.47;52.84;99441.45;1568555;90;21332;-90